This is the latest recevied weather packets stored in our database for station/object N2XP. If no packets are shown the sender has not sent any weather packets the latest 10 day(s).
| Time | Temp. | Humidity | Pressure | Rain* | Wind** | Luminosity | Snow |
|---|---|---|---|---|---|---|---|
| 1777961759 | 11.11° C | 78% | 1008.1 hPa | 0 mm | - | - | - |
| 1777960862 | 11.11° C | 78% | 1008.2 hPa | 0 mm | - | - | - |
| 1777959963 | 11.11° C | 77% | 1008.2 hPa | 0 mm | - | - | - |
| 1777959070 | 11.11° C | 76% | 1008.2 hPa | 0 mm | - | - | - |
| 1777958155 | 11.11° C | 76% | 1008.2 hPa | 0 mm | - | - | - |
| 1777957254 | 11.11° C | 76% | 1008.2 hPa | 0 mm | - | - | - |
| 1777956361 | 11.11° C | 76% | 1008.4 hPa | 0 mm | - | - | - |
| 1777955459 | 11.11° C | 76% | 1008.4 hPa | 0 mm | - | - | - |
| 1777954569 | 11.67° C | 74% | 1008.4 hPa | 0 mm | - | - | - |
| 1777953646 | 11.67° C | 74% | 1008.4 hPa | 0 mm | - | - | - |
| 1777952747 | 11.67° C | 74% | 1008.4 hPa | 0 mm | - | - | - |
| 1777951843 | 11.67° C | 73% | 1008.6 hPa | 0 mm | - | - | - |
| 1777950943 | 12.22° C | 72% | 1008.7 hPa | 0 mm | - | - | - |
| 1777950044 | 12.22° C | 71% | 1008.7 hPa | 0 mm | - | - | - |
| 1777949145 | 12.22° C | 72% | 1008.7 hPa | 0 mm | - | - | - |
| 1777948245 | 12.78° C | 70% | 1008.7 hPa | 0 mm | - | - | - |
| 1777947344 | 12.78° C | 68% | 1008.8 hPa | 0 mm | - | - | - |
| 1777946438 | 13.33° C | 66% | 1008.7 hPa | 0 mm | - | - | - |
| 1777945542 | 13.89° C | 66% | 1008.6 hPa | 0 mm | - | - | - |
| 1777944636 | 13.89° C | 64% | 1008.6 hPa | 0 mm | - | - | - |
| 1777943736 | 14.44° C | 63% | 1008.5 hPa | 0 mm | - | - | - |
| 1777942841 | 15° C | 60% | 1008.2 hPa | 0 mm | - | - | - |
| 1777941935 | 15.56° C | 58% | 1008.2 hPa | 0 mm | - | - | - |
| 1777941033 | 16.11° C | 56% | 1008 hPa | 0 mm | - | - | - |
| 1777940146 | 17.22° C | 53% | 1007.9 hPa | 0 mm | - | - | - |
* Rain latest hour (hover to see other rain measurements)
** Current wind speed in m/s (hover to see current wind gust speed)